Time;durP1;ratioP1;P1;durP2;ratioP2;P2;SDS_P1;SDS_P2;PMS_P1;PMS_P2;Temp;Humidity;BMP_temperature;BMP_pressure;BME280_temperature;BME280_humidity;BME280_pressure;Samples;Min_cycle;Max_cycle;Signal;HPM_P1;HPM_P2
2023/05/22 00:00:37;;;;;;;0.50;0.50;;;22.40;63.30;;;22.87;45.07;94908.69;5074706;28;20280;-40
2023/05/22 00:03:04;;;;;;;0.50;0.50;;;22.40;63.40;;;22.85;45.11;94913.50;5075165;28;20226;-41
2023/05/22 00:05:33;;;;;;;0.50;0.50;;;22.40;63.30;;;22.82;45.43;94908.72;5074859;28;20222;-37
2023/05/22 00:08:00;;;;;;;0.40;0.40;;;22.30;63.30;;;22.78;45.13;94905.78;5074869;28;20202;-37
2023/05/22 00:10:27;;;;;;;0.40;0.40;;;22.30;63.20;;;22.74;44.94;94907.41;5074716;28;20206;-37
2023/05/22 00:12:54;;;;;;;0.50;0.50;;;22.30;63.30;;;22.70;45.14;94907.13;5074753;28;20232;-37
2023/05/22 00:15:21;;;;;;;0.40;0.40;;;22.30;63.20;;;22.67;45.39;94910.31;5090681;28;20663;-36
2023/05/22 00:17:48;;;;;;;0.50;0.50;;;22.30;63.40;;;22.65;45.21;94903.66;5075038;28;20275;-36
2023/05/22 00:20:16;;;;;;;0.43;0.43;;;22.20;63.40;;;22.62;45.12;94896.97;5074652;28;20267;-36
2023/05/22 00:22:43;;;;;;;0.40;0.40;;;22.20;64.20;;;22.60;45.21;94898.31;5074632;28;20224;-36
2023/05/22 00:25:11;;;;;;;0.40;0.40;;;22.20;63.40;;;22.57;45.47;94899.66;5074646;28;20218;-36
2023/05/22 00:27:38;;;;;;;0.43;0.43;;;22.10;63.40;;;22.55;45.21;94899.09;5074938;28;20595;-36
2023/05/22 00:30:06;;;;;;;0.40;0.40;;;22.10;63.40;;;22.52;45.43;94895.09;5073677;28;20760;-36
2023/05/22 00:32:34;;;;;;;0.43;0.43;;;22.10;63.50;;;22.50;45.50;94894.56;5074492;28;20222;-35
2023/05/22 00:35:02;;;;;;;0.40;0.40;;;22.00;63.40;;;22.46;45.37;94898.84;5074594;28;20205;-36
2023/05/22 00:37:29;;;;;;;0.40;0.40;;;22.00;63.50;;;22.44;45.63;94890.28;5074790;28;20202;-36
2023/05/22 00:39:56;;;;;;;0.30;0.30;;;22.00;63.50;;;22.42;45.52;94887.06;5074561;28;20206;-36
2023/05/22 00:42:23;;;;;;;0.43;0.43;;;22.00;63.60;;;22.40;45.29;94894.56;5074185;28;20657;-36
2023/05/22 00:44:50;;;;;;;0.40;0.40;;;22.00;64.50;;;22.37;45.82;94887.88;5056949;28;20332;-36
2023/05/22 00:47:17;;;;;;;0.40;0.40;;;22.00;63.60;;;22.36;45.57;94882.75;5073521;28;20287;-35
2023/05/22 00:49:45;;;;;;;0.50;0.50;;;21.90;63.60;;;22.35;45.55;94889.19;5090562;28;20202;-36
2023/05/22 00:52:13;;;;;;;0.40;0.40;;;21.90;63.60;;;22.31;45.74;94885.44;5073244;28;20579;-36
2023/05/22 00:54:40;;;;;;;0.50;0.50;;;21.90;63.70;;;22.29;45.54;94893.72;5073812;28;20707;-36
2023/05/22 00:57:08;;;;;;;0.40;0.40;;;21.90;63.70;;;22.26;45.87;94885.44;5073559;28;20216;-36
2023/05/22 00:59:35;;;;;;;0.50;0.50;;;21.80;63.70;;;22.25;46.02;94887.31;5073427;28;20488;-37
2023/05/22 01:02:02;;;;;;;0.47;0.47;;;21.80;63.70;;;22.23;45.69;94886.78;5074172;28;20199;-36
2023/05/22 01:04:31;;;;;;;0.40;0.40;;;21.80;63.80;;;22.21;45.92;94888.91;5074271;28;20510;-36
2023/05/22 01:07:01;;;;;;;0.40;0.40;;;21.80;63.90;;;22.19;45.67;94885.69;5074741;28;20187;-36
2023/05/22 01:09:29;;;;;;;0.40;0.40;;;21.80;63.90;;;22.18;46.24;94881.41;5092295;28;20250;-36
2023/05/22 01:12:19;;;;;;;0.40;0.40;;;21.80;63.90;;;22.16;45.84;94883.56;5077660;28;20231;-36
2023/05/22 01:15:16;;;;;;;0.40;0.40;;;21.70;63.90;;;22.12;46.15;94888.63;5077829;28;20292;-35
2023/05/22 01:18:11;;;;;;;0.60;0.60;;;21.70;63.80;;;22.09;45.91;94891.03;5076841;28;20616;-36
2023/05/22 01:21:23;;;;;;;0.50;0.50;;;21.70;63.90;;;22.05;46.09;94888.09;5077900;28;20207;-36
2023/05/22 01:24:10;;;;;;;0.40;0.40;;;21.70;63.90;;;22.01;46.22;94885.16;5093606;28;20199;-36
2023/05/22 01:27:02;;;;;;;0.40;0.40;;;21.60;63.80;;;21.97;46.12;94877.94;5077926;28;20183;-36
2023/05/22 01:29:59;;;;;;;0.40;0.40;;;21.60;63.90;;;21.93;46.21;94876.88;5076736;28;20241;-37
2023/05/22 01:32:28;;;;;;;0.40;0.40;;;21.60;64.00;;;21.88;46.25;94881.09;5076457;28;20198;-36
2023/05/22 01:34:58;;;;;;;0.55;0.55;;;21.50;63.90;;;21.88;45.99;94885.66;5076499;28;20633;-36
2023/05/22 01:37:26;;;;;;;0.45;0.45;;;21.50;63.90;;;21.85;46.26;94889.66;5093263;28;20212;-36
2023/05/22 01:39:55;;;;;;;0.40;0.40;;;21.50;64.00;;;21.84;46.32;94885.38;5077082;28;20207;-37
2023/05/22 01:42:22;;;;;;;0.45;0.45;;;21.50;64.10;;;21.83;46.29;94883.78;5076208;28;20593;-36
2023/05/22 01:44:49;;;;;;;0.50;0.50;;;21.50;64.10;;;21.82;46.24;94889.38;5077199;28;20220;-39
2023/05/22 01:47:17;;;;;;;0.40;0.40;;;21.40;64.10;;;21.82;46.37;94886.72;5076256;28;20200;-36
2023/05/22 01:49:46;;;;;;;0.50;0.50;;;21.40;64.30;;;21.80;46.37;94887.00;5076197;28;20288;-36
2023/05/22 01:52:51;;;;;;;0.40;0.40;;;21.40;64.30;;;21.76;46.65;94885.88;5059731;28;20209;-36
2023/05/22 01:55:28;;;;;;;0.50;0.50;;;21.40;64.30;;;21.74;46.56;94882.69;5073844;28;20207;-36
2023/05/22 01:58:35;;;;;;;0.40;0.40;;;21.40;64.40;;;21.73;46.72;94873.09;5076141;28;20209;-36
2023/05/22 02:01:03;;;;;;;0.50;0.50;;;21.40;64.60;;;21.71;46.48;94886.66;5077677;28;20206;-36
2023/05/22 02:03:32;;;;;;;0.45;0.45;;;21.40;64.50;;;21.71;46.45;94880.53;5076930;28;20195;-36
2023/05/22 02:06:05;;;;;;;0.50;0.50;;;21.40;64.60;;;21.70;46.47;94884.28;5077043;28;20228;-37
2023/05/22 02:08:34;;;;;;;0.45;0.45;;;21.30;64.50;;;21.69;46.57;94878.16;5076078;28;20260;-37
2023/05/22 02:11:03;;;;;;;0.50;0.50;;;21.30;65.40;;;21.68;46.42;94884.53;5075836;28;20232;-36
2023/05/22 02:13:30;;;;;;;0.40;0.40;;;21.30;64.50;;;21.68;46.61;94883.72;5075715;28;20290;-36
2023/05/22 02:15:58;;;;;;;0.50;0.50;;;21.30;64.50;;;21.65;46.81;94876.25;5075713;28;20293;-35
2023/05/22 02:18:29;;;;;;;0.50;0.50;;;21.20;64.40;;;21.63;46.56;94881.88;5092471;28;20571;-35
2023/05/22 02:20:57;;;;;;;0.43;0.43;;;21.20;64.40;;;21.60;46.99;94877.03;5075587;28;20209;-35
2023/05/22 02:23:28;;;;;;;0.50;0.50;;;21.20;64.40;;;21.57;46.46;94875.69;5092191;28;20589;-35
2023/05/22 02:25:55;;;;;;;0.50;0.50;;;21.20;64.40;;;21.56;46.82;94871.41;5059220;28;20719;-35
2023/05/22 02:28:23;;;;;;;0.40;0.40;;;21.20;64.40;;;21.56;46.79;94870.59;5058983;28;20280;-36
2023/05/22 02:30:50;;;;;;;0.40;0.40;;;21.20;64.40;;;21.56;47.01;94865.25;5076365;28;20636;-36
2023/05/22 02:33:17;;;;;;;0.40;0.40;;;21.20;65.30;;;21.54;47.03;94870.06;5076401;28;20284;-36
2023/05/22 02:35:45;;;;;;;0.47;0.47;;;21.10;64.40;;;21.53;47.00;94868.44;5092139;28;20540;-35
2023/05/22 02:38:12;;;;;;;0.40;0.40;;;21.20;64.40;;;21.51;46.87;94867.91;5075240;28;20213;-35
2023/05/22 02:40:39;;;;;;;0.40;0.40;;;21.10;64.40;;;21.48;47.15;94865.75;5092590;28;20271;-35
2023/05/22 02:43:07;;;;;;;0.40;0.40;;;21.10;64.40;;;21.45;46.71;94864.41;5091831;28;20657;-35
2023/05/22 02:45:35;;;;;;;0.50;0.50;;;21.10;64.30;;;21.43;46.87;94864.69;5075040;28;20222;-36
2023/05/22 02:48:03;;;;;;;0.40;0.40;;;21.10;64.40;;;21.40;46.74;94854.53;5075054;28;20305;-35
2023/05/22 02:50:31;;;;;;;0.40;0.40;;;21.10;64.30;;;21.37;46.79;94852.41;5074990;28;20203;-36
2023/05/22 02:52:58;;;;;;;0.40;0.40;;;21.10;64.30;;;21.36;46.99;94849.97;5074793;28;20256;-36
2023/05/22 02:55:25;;;;;;;0.40;0.40;;;21.10;64.40;;;21.34;47.16;94850.25;5075499;28;20316;-35
2023/05/22 02:57:52;;;;;;;0.50;0.50;;;21.00;64.30;;;21.31;47.19;94847.28;5074904;28;20230;-35
2023/05/22 03:00:21;;;;;;;0.40;0.40;;;21.00;64.30;;;21.28;47.04;94844.06;5075970;28;20223;-35
2023/05/22 03:02:48;;;;;;;0.50;0.50;;;21.00;64.20;;;21.26;47.26;94842.72;5074673;28;20210;-35
2023/05/22 03:05:16;;;;;;;0.40;0.40;;;21.00;64.30;;;21.24;47.07;94848.34;5075617;28;20229;-36
2023/05/22 03:07:44;;;;;;;0.43;0.43;;;21.00;64.30;;;21.23;47.22;94840.59;5075665;28;20194;-35
2023/05/22 03:10:14;;;;;;;0.40;0.40;;;21.00;64.30;;;21.20;47.46;94841.09;5091601;28;20191;-35
2023/05/22 03:12:42;;;;;;;0.60;0.60;;;20.90;64.20;;;21.20;47.25;94838.44;5074274;28;20250;-36
2023/05/22 03:15:10;;;;;;;0.50;0.50;;;20.90;64.20;;;21.18;47.42;94833.38;5058441;28;20595;-35
2023/05/22 03:17:39;;;;;;;0.63;0.63;;;20.90;64.20;;;21.19;47.56;94842.16;5074931;28;20198;-35
2023/05/22 03:20:07;;;;;;;0.50;0.50;;;20.90;64.20;;;21.18;47.44;94840.56;5091352;28;20214;-35
2023/05/22 03:22:35;;;;;;;0.40;0.40;;;20.90;64.20;;;21.17;47.65;94841.66;5075737;28;20267;-36
2023/05/22 03:25:02;;;;;;;0.40;0.40;;;20.80;64.20;;;21.17;47.60;94841.66;5074361;28;20222;-35
2023/05/22 03:27:29;;;;;;;0.45;0.45;;;20.80;64.30;;;21.15;47.69;94839.22;5075322;28;20695;-37
2023/05/22 03:29:57;;;;;;;0.40;0.40;;;20.80;64.50;;;21.16;47.37;94843.50;5074439;28;20689;-36
2023/05/22 03:32:24;;;;;;;0.57;0.57;;;20.80;64.50;;;21.16;47.67;94837.38;5074961;28;20226;-36
2023/05/22 03:34:51;;;;;;;0.40;0.40;;;20.80;64.60;;;21.11;47.70;94828.25;5075507;28;20201;-37
2023/05/22 03:37:18;;;;;;;0.50;0.50;;;20.80;64.50;;;21.15;47.69;94838.44;5074227;28;20588;-35
2023/05/22 03:39:46;;;;;;;0.40;0.40;;;20.80;64.60;;;21.13;47.91;94836.03;5074209;28;20190;-35
2023/05/22 03:42:23;;;;;;;0.43;0.43;;;20.80;64.50;;;21.11;47.80;94838.16;5074275;28;20299;-38
2023/05/22 03:44:50;;;;;;;0.40;0.40;;;20.80;64.60;;;21.09;47.49;94841.06;5074055;28;20666;-36
2023/05/22 03:47:18;;;;;;;0.60;0.60;;;20.80;64.70;;;21.09;47.67;94835.75;5074108;28;20221;-36
2023/05/22 03:49:45;;;;;;;0.50;0.50;;;20.80;64.60;;;21.09;47.51;94834.94;5090965;28;20280;-37
2023/05/22 03:52:12;;;;;;;0.52;0.52;;;20.80;64.70;;;21.07;48.06;94829.84;5074046;28;20512;-36
2023/05/22 03:54:40;;;;;;;0.45;0.45;;;20.80;64.70;;;21.07;47.74;94829.06;5090904;28;20207;-38
2023/05/22 03:57:07;;;;;;;0.50;0.50;;;20.70;64.60;;;21.05;47.67;94829.31;5074025;28;20314;-36
2023/05/22 03:59:35;;;;;;;0.43;0.43;;;20.70;64.70;;;21.06;47.75;94833.59;5073994;28;20290;-36
2023/05/22 04:02:02;;;;;;;0.52;0.52;;;20.70;64.70;;;21.04;47.59;94830.38;5074145;28;20274;-38
2023/05/22 04:04:29;;;;;;;0.50;0.50;;;20.70;64.70;;;21.04;47.53;94824.25;5075159;28;20281;-35
2023/05/22 04:06:56;;;;;;;0.40;0.40;;;20.70;64.70;;;21.01;47.59;94828.22;5074903;28;20187;-35
2023/05/22 04:09:33;;;;;;;0.40;0.40;;;20.70;64.70;;;21.02;47.75;94821.84;5073893;28;20572;-35
2023/05/22 04:12:01;;;;;;;0.40;0.40;;;20.70;64.80;;;20.99;48.20;94817.00;5073659;28;20230;-35
2023/05/22 04:14:28;;;;;;;0.50;0.50;;;20.70;64.80;;;20.99;47.77;94818.91;5073804;28;20617;-35
2023/05/22 04:16:55;;;;;;;0.50;0.50;;;20.70;64.90;;;20.97;48.00;94819.16;5073942;28;20207;-35
2023/05/22 04:19:22;;;;;;;0.40;0.40;;;20.70;64.90;;;20.96;47.85;94814.88;5074708;28;20187;-35
2023/05/22 04:21:49;;;;;;;0.50;0.50;;;20.70;64.90;;;20.96;48.25;94820.22;5073802;28;20194;-36
2023/05/22 04:24:17;;;;;;;0.50;0.50;;;20.70;65.00;;;20.96;48.09;94817.56;5074576;28;20191;-35
2023/05/22 04:26:44;;;;;;;0.40;0.40;;;20.70;65.00;;;20.94;47.99;94817.78;5057149;28;20261;-35
2023/05/22 04:29:13;;;;;;;0.47;0.47;;;20.70;65.10;;;20.94;48.19;94819.66;5075261;28;20214;-35
2023/05/22 04:31:40;;;;;;;0.40;0.40;;;20.60;65.10;;;20.94;47.80;94817.78;5074024;28;20307;-36
2023/05/22 04:34:14;;;;;;;0.50;0.50;;;20.60;65.20;;;20.94;48.16;94819.66;5073479;28;20678;-36
2023/05/22 04:36:43;;;;;;;0.43;0.43;;;20.70;65.30;;;20.94;48.18;94825.00;5073658;28;20534;-35
2023/05/22 04:39:12;;;;;;;0.40;0.40;;;20.70;65.50;;;20.95;48.66;94823.94;5074845;28;20213;-35
2023/05/22 04:41:40;;;;;;;0.50;0.50;;;20.70;65.40;;;20.94;48.30;94822.34;5074838;28;20260;-35
2023/05/22 04:44:07;;;;;;;0.40;0.40;;;20.70;65.50;;;20.94;48.31;94825.78;5075220;28;20199;-35
2023/05/22 04:46:34;;;;;;;0.50;0.50;;;20.70;65.50;;;20.94;49.01;94825.00;5078256;28;20203;-35
2023/05/22 04:49:02;;;;;;;0.50;0.50;;;20.70;65.50;;;20.94;48.78;94830.31;5077354;28;20213;-36
2023/05/22 04:51:31;;;;;;;0.40;0.40;;;20.70;65.60;;;20.94;48.96;94830.31;5077363;28;20227;-35
2023/05/22 04:53:58;;;;;;;0.50;0.50;;;20.70;65.60;;;20.94;48.73;94827.66;5077212;28;20257;-36
2023/05/22 04:56:29;;;;;;;0.40;0.40;;;20.70;65.60;;;20.92;49.15;94825.25;5077516;28;20204;-36
2023/05/22 04:59:04;;;;;;;0.40;0.40;;;20.70;65.70;;;20.93;48.98;94826.06;5078139;28;20266;-37
2023/05/22 05:01:33;;;;;;;0.50;0.50;;;20.70;65.70;;;20.94;49.15;94825.78;5077129;28;20272;-35
2023/05/22 05:04:02;;;;;;;0.40;0.40;;;20.80;65.70;;;20.93;49.02;94834.88;5076917;28;20293;-36
2023/05/22 05:06:29;;;;;;;0.40;0.40;;;20.80;65.80;;;20.93;48.95;94826.88;5077888;28;20225;-36
2023/05/22 05:08:56;;;;;;;0.50;0.50;;;20.80;65.80;;;20.94;49.22;94828.47;5076959;28;20208;-35
2023/05/22 05:11:24;;;;;;;0.50;0.50;;;20.80;65.90;;;20.94;49.44;94833.00;5076756;28;20280;-35
2023/05/22 05:13:51;;;;;;;0.40;0.40;;;20.80;65.80;;;20.95;49.57;94830.06;5076711;28;20190;-35
2023/05/22 05:16:18;;;;;;;0.50;0.50;;;20.80;65.90;;;20.96;49.45;94833.56;5077837;28;20260;-35
2023/05/22 05:18:46;;;;;;;0.40;0.40;;;20.80;66.80;;;20.97;49.64;94840.50;5078020;28;20196;-36
2023/05/22 05:21:13;;;;;;;0.43;0.43;;;20.80;65.90;;;20.98;49.68;94842.06;5077966;28;20630;-36
2023/05/22 05:23:40;;;;;;;0.45;0.45;;;20.80;65.90;;;20.99;49.16;94837.56;5077501;28;20202;-36
2023/05/22 05:26:08;;;;;;;0.43;0.43;;;20.80;66.00;;;21.01;49.60;94843.44;5076602;28;20222;-36
2023/05/22 05:28:36;;;;;;;0.40;0.40;;;20.80;65.90;;;21.01;49.33;94838.91;5076749;28;20199;-35
2023/05/22 05:31:06;;;;;;;0.50;0.50;;;20.90;66.00;;;21.02;49.83;94843.19;5077187;28;20199;-36
2023/05/22 05:33:56;;;;;;;0.50;0.50;;;20.90;66.00;;;21.03;49.22;94842.13;5070480;28;20211;-36
2023/05/22 05:36:30;;;;;;;0.45;0.45;;;20.90;66.10;;;21.05;49.45;94853.31;5077483;28;20182;-36
2023/05/22 05:38:57;;;;;;;0.40;0.40;;;20.90;66.10;;;21.07;49.77;94842.41;5076465;28;20264;-36
2023/05/22 05:41:26;;;;;;;0.45;0.45;;;20.90;66.10;;;21.08;49.79;94850.13;5077655;28;20545;-36
2023/05/22 05:44:01;;;;;;;0.40;0.40;;;20.90;66.10;;;21.10;49.72;94847.19;5076427;28;20195;-37
2023/05/22 05:46:31;;;;;;;0.40;0.40;;;21.00;66.30;;;21.10;49.53;94841.88;5076246;28;20220;-37
2023/05/22 05:49:00;;;;;;;0.40;0.40;;;21.00;66.30;;;21.12;49.98;94847.75;5077411;28;20201;-36
2023/05/22 05:51:27;;;;;;;0.40;0.40;;;21.00;66.20;;;21.14;49.59;94847.47;5076199;28;20657;-36
2023/05/22 05:53:55;;;;;;;0.40;0.40;;;21.00;66.30;;;21.16;49.63;94851.50;5076238;28;20231;-37
2023/05/22 05:56:22;;;;;;;0.40;0.40;;;21.00;66.30;;;21.17;49.86;94855.78;5076181;28;20207;-35
2023/05/22 05:58:50;;;;;;;0.40;0.40;;;21.00;66.30;;;21.19;49.70;94853.66;5076109;28;20239;-36
2023/05/22 06:01:50;;;;;;;0.60;0.60;;;21.00;66.30;;;21.18;49.96;94844.03;5065744;28;20685;-36
2023/05/22 06:04:26;;;;;;;0.40;0.40;;;21.10;66.50;;;21.21;49.99;94853.38;5076071;28;20250;-35
2023/05/22 06:06:55;;;;;;;0.60;0.60;;;21.10;66.50;;;21.22;50.13;94847.78;5092886;28;20243;-34
2023/05/22 06:09:35;;;;;;;0.50;0.50;;;21.10;66.50;;;21.24;49.93;94839.53;5076252;28;20578;-36
2023/05/22 06:12:25;;;;;;;0.50;0.50;;;21.10;66.50;;;21.26;50.46;94843.56;5068657;28;20241;-34
2023/05/22 06:14:52;;;;;;;0.40;0.40;;;21.10;66.50;;;21.27;50.17;94842.47;5075760;28;20202;-34
2023/05/22 06:17:19;;;;;;;0.50;0.50;;;21.20;66.60;;;21.30;50.37;94843.00;5075735;28;20310;-34
2023/05/22 06:19:48;;;;;;;0.40;0.40;;;21.20;66.60;;;21.33;50.15;94847.84;5075857;28;20202;-34
2023/05/22 06:22:15;;;;;;;0.40;0.40;;;21.20;66.70;;;21.34;50.41;94842.22;5092521;28;20212;-34
2023/05/22 06:24:45;;;;;;;0.50;0.50;;;21.20;66.70;;;21.36;50.13;94842.78;5075513;28;20206;-36
2023/05/22 06:27:16;;;;;;;0.40;0.40;;;21.20;66.70;;;21.38;50.27;94837.19;5059681;28;20227;-36
2023/05/22 06:29:43;;;;;;;0.40;0.40;;;21.20;66.70;;;21.39;50.32;94839.56;5075489;28;20223;-35
2023/05/22 06:32:11;;;;;;;0.40;0.40;;;21.20;66.70;;;21.40;50.17;94840.41;5075451;28;20205;-35
2023/05/22 06:34:40;;;;;;;0.47;0.47;;;21.30;66.70;;;21.42;50.05;94836.41;5075200;28;20598;-34
2023/05/22 06:37:08;;;;;;;0.40;0.40;;;21.30;66.80;;;21.45;50.10;94829.72;5075411;28;20191;-35
2023/05/22 06:39:39;;;;;;;0.50;0.50;;;21.30;66.80;;;21.47;50.06;94834.81;5076853;28;20192;-35
2023/05/22 06:42:21;;;;;;;0.50;0.50;;;21.30;66.80;;;21.47;50.06;94827.63;5075363;28;20260;-34
2023/05/22 06:45:07;;;;;;;0.50;0.50;;;21.40;66.80;;;21.50;50.14;94835.06;5075997;28;20196;-34
2023/05/22 06:47:45;;;;;;;0.50;0.50;;;21.40;66.80;;;21.52;50.34;94830.28;5075160;28;20270;-36
2023/05/22 06:50:12;;;;;;;0.40;0.40;;;21.40;66.80;;;21.56;50.42;94830.56;5092012;28;20194;-36
2023/05/22 06:52:40;;;;;;;0.50;0.50;;;21.40;66.90;;;21.58;50.50;94839.13;5075011;28;20192;-36
2023/05/22 06:55:09;;;;;;;0.50;0.50;;;21.40;66.90;;;21.60;50.14;94834.34;5091703;28;20601;-36
2023/05/22 06:57:49;;;;;;;0.45;0.45;;;21.50;66.90;;;21.63;50.24;94846.34;5075004;28;20664;-35
2023/05/22 07:00:18;;;;;;;0.40;0.40;;;21.50;67.10;;;21.65;50.80;94836.22;5075172;28;20262;-36
2023/05/22 07:03:06;;;;;;;0.40;0.40;;;21.50;67.10;;;21.68;50.65;94841.00;5075160;28;20220;-35
2023/05/22 07:05:48;;;;;;;0.40;0.40;;;21.50;67.10;;;21.69;50.63;94845.28;5074227;28;20671;-36
2023/05/22 07:08:16;;;;;;;0.50;0.50;;;21.50;67.10;;;21.74;50.69;94845.31;5074778;28;20209;-36
2023/05/22 07:10:44;;;;;;;0.40;0.40;;;21.60;67.20;;;21.77;50.58;94844.78;5074482;28;20228;-36
2023/05/22 07:13:11;;;;;;;0.47;0.47;;;21.60;67.20;;;21.80;50.42;94848.78;5074640;28;20256;-36
2023/05/22 07:15:38;;;;;;;0.40;0.40;;;21.60;67.20;;;21.83;50.51;94845.59;5074540;28;20214;-37
2023/05/22 07:18:08;;;;;;;0.40;0.40;;;21.60;67.20;;;21.85;50.72;94838.09;5057982;28;20283;-38
2023/05/22 07:20:37;;;;;;;0.50;0.50;;;21.70;67.30;;;21.86;50.70;94839.72;5074805;28;20206;-37
2023/05/22 07:23:11;;;;;;;0.40;0.40;;;21.70;67.30;;;21.88;50.79;94830.38;5091695;28;20725;-36
2023/05/22 07:25:38;;;;;;;0.40;0.40;;;21.70;67.20;;;21.93;50.69;94842.16;5074172;28;20222;-36
2023/05/22 07:28:08;;;;;;;0.50;0.50;;;21.80;67.30;;;21.95;50.61;94829.31;5091528;28;20209;-36
2023/05/22 07:30:44;;;;;;;0.40;0.40;;;21.80;67.30;;;21.97;51.08;94833.34;5091279;28;20199;-37
2023/05/22 07:33:12;;;;;;;0.30;0.30;;;21.80;67.30;;;22.02;50.83;94835.19;5075523;28;20197;-36
2023/05/22 07:35:40;;;;;;;0.40;0.40;;;21.80;67.30;;;22.05;50.82;94832.00;5075300;28;20204;-37
2023/05/22 07:38:07;;;;;;;0.50;0.50;;;21.90;67.40;;;22.07;50.78;94835.22;5074236;28;20217;-36
2023/05/22 07:40:36;;;;;;;0.50;0.50;;;21.90;67.40;;;22.11;50.83;94832.81;5074388;28;20207;-38
2023/05/22 07:43:04;;;;;;;0.47;0.47;;;21.90;67.40;;;22.15;50.80;94831.22;5075345;28;20210;-36
2023/05/22 07:45:31;;;;;;;0.40;0.40;;;21.90;67.40;;;22.16;50.89;94835.50;5073942;28;20210;-36
2023/05/22 07:48:03;;;;;;;0.40;0.40;;;22.00;67.50;;;22.20;50.93;94833.88;5074367;28;20206;-36
2023/05/22 07:50:34;;;;;;;0.52;0.52;;;22.00;67.50;;;22.24;50.90;94834.97;5074183;28;20272;-36
2023/05/22 07:53:03;;;;;;;0.40;0.40;;;22.00;67.50;;;22.26;50.85;94834.69;5074089;28;20201;-36
2023/05/22 07:55:35;;;;;;;0.40;0.40;;;22.10;67.50;;;22.30;51.03;94835.75;5074048;28;20191;-36
2023/05/22 07:58:03;;;;;;;0.40;0.40;;;22.10;67.50;;;22.33;51.21;94829.88;5073832;28;20546;-36
2023/05/22 08:00:34;;;;;;;0.40;0.40;;;22.10;67.60;;;22.37;51.10;94836.28;5074051;28;20190;-36
2023/05/22 08:03:01;;;;;;;0.40;0.40;;;22.20;67.60;;;22.41;50.75;94833.91;5075179;28;20208;-36
2023/05/22 08:05:29;;;;;;;0.40;0.40;;;22.20;67.70;;;22.42;50.93;94828.28;5075128;28;20191;-35
2023/05/22 08:07:56;;;;;;;0.50;0.50;;;22.20;67.60;;;22.45;51.13;94827.75;5074337;28;20252;-36
2023/05/22 08:10:23;;;;;;;0.50;0.50;;;22.20;67.60;;;22.48;51.14;94829.88;5074873;28;20281;-36
2023/05/22 08:12:51;;;;;;;0.40;0.40;;;22.30;67.60;;;22.52;51.04;94819.44;5074672;28;20250;-36
2023/05/22 08:15:18;;;;;;;0.40;0.40;;;22.30;67.60;;;22.56;51.16;94831.22;5073781;28;20200;-36
2023/05/22 08:17:46;;;;;;;0.38;0.38;;;22.30;67.70;;;22.59;51.17;94821.84;5075029;28;20194;-36
2023/05/22 08:20:13;;;;;;;0.40;0.40;;;22.30;67.60;;;22.62;50.83;94819.44;5079193;28;20241;-36
2023/05/22 08:22:40;;;;;;;0.40;0.40;;;22.40;67.70;;;22.66;51.07;94825.06;5078821;28;20210;-36
2023/05/22 08:25:08;;;;;;;0.30;0.30;;;22.40;67.70;;;22.68;50.84;94823.72;5078721;28;20191;-36
2023/05/22 08:27:35;;;;;;;0.40;0.40;;;22.50;67.70;;;22.71;50.99;94817.00;5079020;28;20212;-36
2023/05/22 08:30:03;;;;;;;0.40;0.40;;;22.50;67.70;;;22.76;50.94;94821.56;5079013;28;20279;-36
2023/05/22 08:32:30;;;;;;;0.40;0.40;;;22.50;67.60;;;22.79;50.98;94819.16;5078704;28;20183;-36
2023/05/22 08:34:58;;;;;;;0.35;0.35;;;22.50;67.60;;;22.83;50.84;94817.50;5078860;28;20199;-36
2023/05/22 08:37:25;;;;;;;0.40;0.40;;;22.60;67.70;;;22.85;50.85;94823.41;5078466;28;20655;-36
2023/05/22 08:39:52;;;;;;;0.30;0.30;;;22.60;67.60;;;22.88;50.85;94813.25;5078781;28;20197;-36
2023/05/22 08:42:19;;;;;;;0.40;0.40;;;22.70;67.70;;;22.90;50.87;94811.91;5078513;28;20606;-36
2023/05/22 08:44:47;;;;;;;0.30;0.30;;;22.70;67.70;;;22.94;50.85;94820.19;5078339;28;20195;-37
2023/05/22 08:47:15;;;;;;;0.40;0.40;;;22.70;67.60;;;22.96;50.93;94813.47;5078314;28;20248;-36
2023/05/22 08:49:44;;;;;;;0.40;0.40;;;22.70;67.60;;;23.00;50.85;94808.38;5078613;28;20283;-36
2023/05/22 08:52:21;;;;;;;0.40;0.40;;;22.80;67.70;;;23.02;50.89;94808.91;5094490;28;20241;-36
2023/05/22 08:54:54;;;;;;;0.50;0.50;;;22.80;67.60;;;23.05;50.99;94810.25;5078117;28;20191;-36
2023/05/22 08:57:22;;;;;;;0.40;0.40;;;22.80;67.60;;;23.09;50.98;94811.28;5078494;28;20264;-36
2023/05/22 08:59:49;;;;;;;0.38;0.38;;;22.80;67.60;;;23.12;50.74;94803.53;5078134;28;20204;-37
2023/05/22 09:02:17;;;;;;;0.40;0.40;;;22.90;67.70;;;23.15;50.87;94805.63;5078405;28;20204;-36
2023/05/22 09:04:44;;;;;;;0.30;0.30;;;22.90;67.70;;;23.18;50.85;94802.44;5093767;28;20286;-36
2023/05/22 09:07:13;;;;;;;0.35;0.35;;;22.90;67.60;;;23.23;50.89;94798.16;5077102;28;20212;-36
2023/05/22 09:09:40;;;;;;;0.40;0.40;;;22.90;67.60;;;23.26;50.69;94794.94;5078182;28;20205;-36
2023/05/22 09:12:09;;;;;;;0.40;0.40;;;23.00;67.60;;;23.29;50.58;94797.03;5077830;28;20231;-37
2023/05/22 09:14:40;;;;;;;0.30;0.30;;;23.00;67.50;;;23.32;50.56;94799.19;5077999;28;20695;-39
2023/05/22 09:17:10;;;;;;;0.35;0.35;;;23.00;67.50;;;23.36;50.81;94796.75;5078140;28;20271;-37
2023/05/22 09:19:43;;;;;;;0.47;0.47;;;23.10;67.50;;;23.39;50.52;94799.69;5076958;28;20200;-36
2023/05/22 09:22:10;;;;;;;0.30;0.30;;;23.10;67.40;;;23.42;50.49;94796.44;5078067;28;20569;-37
2023/05/22 09:24:43;;;;;;;0.40;0.40;;;23.10;67.30;;;23.46;50.25;94800.19;5093380;28;20584;-37
2023/05/22 09:27:11;;;;;;;0.40;0.40;;;23.20;67.30;;;23.49;50.41;94794.25;5077596;28;20697;-36
2023/05/22 09:29:50;;;;;;;0.30;0.30;;;23.20;67.30;;;23.53;50.26;94793.72;5076305;28;20649;-37
2023/05/22 09:32:18;;;;;;;0.55;0.55;;;23.20;67.10;;;23.57;50.33;94784.06;5077577;28;20226;-37
2023/05/22 09:34:46;;;;;;;0.30;0.30;;;23.20;67.10;;;23.60;49.99;94792.34;5077648;28;20270;-38
2023/05/22 09:37:16;;;;;;;0.60;0.60;;;23.30;67.10;;;23.63;49.99;94781.06;5077775;28;20201;-39
2023/05/22 09:39:46;;;;;;;0.60;0.60;;;23.40;67.00;;;23.67;49.90;94789.34;5077745;28;20261;-36
2023/05/22 09:42:17;;;;;;;0.50;0.50;;;23.40;66.90;;;23.72;49.60;94794.66;5077417;28;20196;-36
2023/05/22 09:44:50;;;;;;;0.40;0.40;;;23.40;66.70;;;23.75;49.66;94790.63;5077188;28;20597;-38
2023/05/22 09:47:19;;;;;;;0.40;0.40;;;23.40;66.50;;;23.78;49.70;94784.75;5077612;28;20247;-37
2023/05/22 09:49:47;;;;;;;0.40;0.40;;;23.40;66.70;;;23.82;49.70;94783.09;5077536;28;20208;-36
2023/05/22 09:52:17;;;;;;;0.40;0.40;;;23.50;66.60;;;23.83;49.55;94782.81;5077299;28;20224;-36
2023/05/22 09:54:54;;;;;;;0.40;0.40;;;23.50;66.70;;;23.88;49.55;94783.88;5077499;28;20517;-36
2023/05/22 09:57:25;;;;;;;0.32;0.32;;;23.60;66.40;;;23.91;49.64;94784.09;5077383;28;20211;-36
2023/05/22 09:59:57;;;;;;;0.43;0.43;;;23.60;66.30;;;23.96;49.31;94785.94;5076527;28;20190;-36
2023/05/22 10:02:27;;;;;;;0.40;0.40;;;23.70;66.40;;;24.00;49.04;94789.69;5076098;28;20246;-36
2023/05/22 10:04:55;;;;;;;0.50;0.50;;;23.70;66.40;;;24.02;49.12;94784.84;5076164;28;20492;-36
2023/05/22 10:07:36;;;;;;;0.50;0.50;;;23.70;67.30;;;24.04;48.97;94774.66;5076108;28;20548;-36
2023/05/22 10:10:11;;;;;;;0.40;0.40;;;23.70;66.40;;;24.07;48.79;94775.97;5076939;28;20189;-36
2023/05/22 10:13:02;;;;;;;0.40;0.40;;;23.70;66.40;;;24.09;48.43;94776.50;5076750;28;20363;-36
2023/05/22 10:15:31;;;;;;;0.40;0.40;;;23.80;65.80;;;24.12;48.47;94781.28;5076557;28;20278;-38
2023/05/22 10:17:59;;;;;;;0.40;0.40;;;23.80;65.80;;;24.14;47.69;94774.56;5076740;28;20191;-36
2023/05/22 10:20:28;;;;;;;0.40;0.40;;;23.80;65.30;;;24.17;47.53;94772.41;5075735;28;20538;-36
2023/05/22 10:22:56;;;;;;;0.35;0.35;;;23.90;65.10;;;24.18;47.13;94772.13;5076615;28;20197;-36
2023/05/22 10:25:24;;;;;;;0.50;0.50;;;23.90;64.80;;;24.23;46.81;94773.94;5076839;28;20629;-36
2023/05/22 10:27:52;;;;;;;0.30;0.30;;;23.90;64.60;;;24.24;46.99;94776.38;5076442;28;20412;-38
2023/05/22 10:30:38;;;;;;;0.60;0.60;;;24.00;64.60;;;24.26;46.70;94774.19;5075603;28;20671;-36
2023/05/22 10:33:32;;;;;;;0.30;0.30;;;24.00;64.30;;;24.29;46.65;94772.81;5090298;28;20674;-36